createdAt,value
2023-11-25T00:00:46.509Z,0.77
2023-11-25T00:03:13.758Z,0.50
2023-11-25T00:05:40.828Z,0.50
2023-11-25T00:08:08.115Z,0.50
2023-11-25T00:10:35.413Z,1.13
2023-11-25T00:13:05.057Z,0.40
2023-11-25T00:15:32.040Z,0.60
2023-11-25T00:17:59.625Z,0.57
2023-11-25T00:20:26.649Z,0.70
2023-11-25T00:22:53.977Z,0.73
2023-11-25T00:25:21.192Z,0.60
2023-11-25T00:27:48.195Z,0.70
2023-11-25T00:30:16.824Z,0.80
2023-11-25T00:32:44.041Z,0.70
2023-11-25T00:35:11.727Z,0.90
2023-11-25T00:37:40.548Z,0.47
2023-11-25T00:40:11.223Z,0.90
2023-11-25T00:42:41.822Z,1.10
2023-11-25T00:45:12.383Z,0.60
2023-11-25T00:47:41.773Z,1.00
2023-11-25T00:50:10.082Z,1.10
2023-11-25T00:52:37.338Z,1.30
2023-11-25T00:55:04.982Z,1.37
2023-11-25T00:57:32.227Z,1.40
2023-11-25T00:59:59.452Z,1.10
2023-11-25T01:02:28.877Z,1.40
2023-11-25T01:04:57.498Z,0.90
2023-11-25T01:07:24.510Z,0.80
2023-11-25T01:09:51.538Z,1.67
2023-11-25T01:12:18.415Z,1.33
2023-11-25T01:14:45.343Z,0.90
2023-11-25T01:17:12.311Z,1.00
2023-11-25T01:19:39.469Z,0.90
2023-11-25T01:22:07.861Z,1.10
2023-11-25T01:24:34.814Z,0.90
2023-11-25T01:27:01.878Z,0.93
2023-11-25T01:29:28.744Z,1.27
2023-11-25T01:31:55.682Z,1.27
2023-11-25T01:34:22.608Z,1.10
2023-11-25T01:36:49.567Z,1.00
2023-11-25T01:39:17.782Z,0.70
2023-11-25T01:41:45.213Z,0.93
2023-11-25T01:44:13.618Z,0.90
2023-11-25T01:46:44.384Z,1.47
2023-11-25T01:49:15.439Z,1.00
2023-11-25T01:51:44.080Z,1.23
2023-11-25T01:54:14.925Z,1.30
2023-11-25T01:56:44.524Z,1.20
2023-11-25T01:59:12.924Z,1.07
2023-11-25T02:01:40.621Z,1.53
2023-11-25T02:04:08.883Z,1.30
2023-11-25T02:06:36.133Z,1.17
2023-11-25T02:09:04.384Z,1.70
2023-11-25T02:11:31.252Z,1.47
2023-11-25T02:13:59.709Z,1.00
2023-11-25T02:16:27.245Z,1.17
2023-11-25T02:18:54.405Z,1.03
2023-11-25T02:21:21.380Z,1.03
2023-11-25T02:23:49.633Z,1.00
2023-11-25T02:26:16.513Z,0.70
2023-11-25T02:28:43.424Z,1.07
2023-11-25T02:31:10.400Z,0.70
2023-11-25T02:33:37.419Z,1.03
2023-11-25T02:36:05.222Z,1.30
2023-11-25T02:38:32.052Z,0.83
2023-11-25T02:41:00.345Z,1.37
2023-11-25T02:43:27.421Z,1.10
2023-11-25T02:45:54.441Z,0.73
2023-11-25T02:48:21.399Z,1.13
2023-11-25T02:50:48.841Z,0.53
2023-11-25T02:53:15.837Z,0.90
2023-11-25T02:55:44.441Z,1.23
2023-11-25T02:58:13.783Z,0.90
2023-11-25T03:00:41.925Z,1.03
2023-11-25T03:03:10.553Z,0.70
2023-11-25T03:05:43.616Z,1.17
2023-11-25T03:08:18.381Z,1.33
2023-11-25T03:10:48.951Z,1.40
2023-11-25T03:13:17.993Z,1.07
2023-11-25T03:15:45.034Z,1.50
2023-11-25T03:18:12.196Z,1.70
2023-11-25T03:20:43.038Z,1.17
2023-11-25T03:23:09.962Z,1.10
2023-11-25T03:25:37.797Z,1.30
2023-11-25T03:28:06.978Z,1.10
2023-11-25T03:30:36.497Z,1.70
2023-11-25T03:33:03.445Z,0.80
2023-11-25T03:35:30.394Z,1.30
2023-11-25T03:37:57.390Z,1.43
2023-11-25T03:40:24.492Z,1.37
2023-11-25T03:42:51.377Z,1.63
2023-11-25T03:45:18.282Z,1.27
2023-11-25T03:47:46.820Z,1.73
2023-11-25T03:50:14.399Z,1.20
2023-11-25T03:52:42.221Z,0.80
2023-11-25T03:55:10.957Z,1.70
2023-11-25T03:57:38.882Z,1.67
2023-11-25T04:00:15.410Z,1.40
2023-11-25T04:02:43.512Z,1.37
2023-11-25T04:05:12.584Z,1.50
2023-11-25T04:07:40.263Z,1.40
2023-11-25T04:10:14.712Z,1.80
2023-11-25T04:12:42.197Z,1.37
2023-11-25T04:15:11.314Z,2.03
2023-11-25T04:17:39.385Z,1.70
2023-11-25T04:20:14.172Z,2.10
2023-11-25T04:22:44.176Z,2.07
2023-11-25T04:25:13.023Z,2.57
2023-11-25T04:27:41.206Z,2.20
2023-11-25T04:30:09.797Z,1.97
2023-11-25T04:32:37.008Z,2.90
2023-11-25T04:35:06.850Z,1.90
2023-11-25T04:37:33.966Z,2.60
2023-11-25T04:40:06.539Z,2.43
2023-11-25T04:42:33.959Z,1.97
2023-11-25T04:45:01.160Z,2.60
2023-11-25T04:47:28.481Z,1.97
2023-11-25T04:49:55.633Z,2.10
2023-11-25T04:52:22.660Z,2.30
2023-11-25T04:54:50.158Z,2.80
2023-11-25T04:57:19.317Z,2.47
2023-11-25T04:59:47.257Z,2.77
2023-11-25T05:02:14.982Z,2.50
2023-11-25T05:04:42.086Z,3.07
2023-11-25T05:07:09.308Z,3.23
2023-11-25T05:09:39.277Z,2.90
2023-11-25T05:12:07.269Z,3.60
2023-11-25T05:14:35.476Z,3.40
2023-11-25T05:17:02.480Z,3.67
2023-11-25T05:19:29.471Z,4.20
2023-11-25T05:21:57.041Z,5.07
2023-11-25T05:24:24.034Z,4.27
2023-11-25T05:26:50.924Z,4.00
2023-11-25T05:29:17.831Z,4.27
2023-11-25T05:31:46.425Z,4.63
2023-11-25T05:34:13.941Z,4.80
2023-11-25T05:36:41.061Z,4.73
2023-11-25T05:39:08.597Z,4.20
2023-11-25T05:41:38.388Z,4.10
2023-11-25T05:44:08.589Z,4.00
2023-11-25T05:46:35.971Z,4.53
2023-11-25T05:49:10.743Z,4.63
2023-11-25T05:51:45.188Z,5.33
2023-11-25T05:54:14.204Z,4.53
2023-11-25T05:56:41.795Z,4.37
2023-11-25T05:59:09.249Z,5.53
2023-11-25T06:01:36.344Z,4.97
2023-11-25T06:04:05.232Z,4.83
2023-11-25T06:06:32.200Z,4.27
2023-11-25T06:08:59.166Z,5.30
2023-11-25T06:11:30.120Z,4.53
2023-11-25T06:13:57.740Z,4.10
2023-11-25T06:16:30.448Z,4.80
2023-11-25T06:18:57.793Z,4.80
2023-11-25T06:21:27.346Z,4.27
2023-11-25T06:23:54.205Z,3.90
2023-11-25T06:26:21.089Z,4.10
2023-11-25T06:28:48.860Z,4.80
2023-11-25T06:31:16.909Z,4.40
2023-11-25T06:33:44.324Z,4.30
2023-11-25T06:36:12.085Z,4.63
2023-11-25T06:38:41.225Z,4.10
2023-11-25T06:41:10.730Z,4.37
2023-11-25T06:43:39.620Z,4.80
2023-11-25T06:46:06.699Z,4.33
2023-11-25T06:48:34.817Z,4.90
2023-11-25T06:51:01.919Z,4.53
2023-11-25T06:53:30.251Z,3.43
2023-11-25T06:55:59.645Z,3.97
2023-11-25T06:58:26.864Z,3.90
2023-11-25T07:00:54.863Z,3.63
2023-11-25T07:03:21.967Z,4.00
2023-11-25T07:05:49.047Z,3.77
2023-11-25T07:08:17.297Z,5.67
2023-11-25T07:10:54.533Z,3.00
2023-11-25T07:13:24.146Z,3.30
2023-11-25T07:15:51.138Z,4.50
2023-11-25T07:18:20.750Z,3.37
2023-11-25T07:20:48.012Z,4.30
2023-11-25T07:23:16.026Z,3.40
2023-11-25T07:25:43.374Z,3.70
2023-11-25T07:28:13.564Z,4.50
2023-11-25T07:30:43.022Z,3.07
2023-11-25T07:33:10.258Z,3.63
2023-11-25T07:35:37.484Z,3.70
2023-11-25T07:38:04.443Z,3.47
2023-11-25T07:40:31.444Z,3.20
2023-11-25T07:42:59.439Z,4.63
2023-11-25T07:45:26.811Z,3.47
2023-11-25T07:47:55.166Z,3.00
2023-11-25T07:50:23.070Z,3.33
2023-11-25T07:52:50.853Z,3.50
2023-11-25T07:55:18.082Z,3.17
2023-11-25T07:57:45.406Z,2.87
2023-11-25T08:00:16.573Z,3.00
2023-11-25T08:02:43.884Z,4.40
2023-11-25T08:05:12.384Z,3.90
2023-11-25T08:07:39.370Z,3.20
2023-11-25T08:10:08.833Z,3.40
2023-11-25T08:12:35.838Z,3.77
2023-11-25T08:15:03.371Z,2.77
2023-11-25T08:17:31.239Z,3.40
2023-11-25T08:19:58.283Z,3.70
2023-11-25T08:22:26.907Z,3.23
2023-11-25T08:24:57.287Z,2.83
2023-11-25T08:27:24.140Z,3.23
2023-11-25T08:29:51.216Z,2.83
2023-11-25T08:32:18.296Z,2.97
2023-11-25T08:34:45.353Z,2.97
2023-11-25T08:37:12.316Z,3.07
2023-11-25T08:39:40.673Z,2.40
2023-11-25T08:42:10.073Z,2.93
2023-11-25T08:44:37.149Z,2.93
2023-11-25T08:47:04.583Z,2.60
2023-11-25T08:49:33.286Z,3.17
2023-11-25T08:52:00.280Z,3.00
2023-11-25T08:54:27.202Z,2.50
2023-11-25T08:56:55.993Z,2.90
2023-11-25T08:59:22.973Z,2.90
2023-11-25T09:01:50.442Z,2.73
2023-11-25T09:04:20.979Z,2.83
2023-11-25T09:06:48.883Z,2.97
2023-11-25T09:09:17.908Z,2.50
2023-11-25T09:11:45.088Z,3.07
2023-11-25T09:14:15.869Z,2.60
2023-11-25T09:16:43.909Z,3.10
2023-11-25T09:19:10.891Z,2.40
2023-11-25T09:21:37.990Z,2.50
2023-11-25T09:24:05.675Z,2.77
2023-11-25T09:26:32.515Z,2.67
2023-11-25T09:28:59.446Z,2.70
2023-11-25T09:31:28.148Z,2.63
2023-11-25T09:33:55.295Z,2.43
2023-11-25T09:36:23.801Z,1.60
2023-11-25T09:38:50.870Z,1.77
2023-11-25T09:41:18.608Z,2.27
2023-11-25T09:43:46.156Z,2.37
2023-11-25T09:46:15.093Z,3.00
2023-11-25T09:48:43.521Z,2.37
2023-11-25T09:51:14.769Z,2.40
2023-11-25T09:53:44.354Z,2.27
2023-11-25T09:56:13.077Z,2.10
2023-11-25T09:58:40.371Z,1.70
2023-11-25T10:01:07.906Z,2.00
2023-11-25T10:03:36.120Z,2.30
2023-11-25T10:06:04.995Z,2.20
2023-11-25T10:08:33.824Z,2.37
2023-11-25T10:11:02.875Z,2.33
2023-11-25T10:13:34.137Z,2.23
2023-11-25T10:16:01.541Z,2.10
2023-11-25T10:18:30.006Z,2.23
2023-11-25T10:21:00.556Z,2.10
2023-11-25T10:23:29.245Z,2.50
2023-11-25T10:25:59.931Z,3.27
2023-11-25T10:28:27.621Z,2.20
2023-11-25T10:30:55.683Z,2.40
2023-11-25T10:33:23.111Z,1.43
2023-11-25T10:35:50.260Z,1.50
2023-11-25T10:38:17.936Z,1.70
2023-11-25T10:40:46.787Z,2.03
2023-11-25T10:43:13.794Z,2.20
2023-11-25T10:45:40.863Z,2.33
2023-11-25T10:48:09.499Z,2.27
2023-11-25T10:50:36.459Z,2.37
2023-11-25T10:53:06.431Z,2.30
2023-11-25T10:55:34.669Z,1.70
2023-11-25T10:58:06.409Z,1.70
2023-11-25T11:00:33.567Z,2.13
2023-11-25T11:03:06.600Z,2.27
2023-11-25T11:05:41.749Z,4.07
2023-11-25T11:08:13.298Z,1.80
2023-11-25T11:10:57.726Z,1.90
2023-11-25T11:13:39.687Z,1.63
2023-11-25T11:16:11.629Z,0.80
2023-11-25T11:18:42.718Z,1.57
2023-11-25T11:21:10.700Z,1.10
2023-11-25T11:23:38.921Z,1.90
2023-11-25T11:26:17.978Z,1.37
2023-11-25T11:28:53.951Z,2.27
2023-11-25T11:32:01.292Z,1.20
2023-11-25T11:34:30.626Z,1.70
2023-11-25T11:36:57.850Z,1.90
2023-11-25T11:39:38.581Z,1.90
2023-11-25T11:42:28.480Z,1.67
2023-11-25T11:44:57.985Z,1.43
2023-11-25T11:47:28.065Z,1.50
2023-11-25T11:49:55.131Z,1.33
2023-11-25T11:52:22.932Z,1.80
2023-11-25T11:54:49.960Z,1.57
2023-11-25T11:57:18.443Z,2.03
2023-11-25T12:00:00.886Z,1.80
2023-11-25T12:02:31.507Z,2.10
2023-11-25T12:05:00.186Z,1.70
2023-11-25T12:07:27.810Z,1.50
2023-11-25T12:09:56.350Z,1.20
2023-11-25T12:12:23.906Z,1.47
2023-11-25T12:14:53.490Z,3.83
2023-11-25T12:17:23.443Z,1.17
2023-11-25T12:19:53.508Z,0.87
2023-11-25T12:22:20.544Z,0.93
2023-11-25T12:24:47.443Z,1.03
2023-11-25T12:27:15.770Z,0.80
2023-11-25T12:29:42.695Z,1.13
2023-11-25T12:32:09.865Z,0.87
2023-11-25T12:34:38.323Z,0.80
2023-11-25T12:37:05.285Z,0.80
2023-11-25T12:39:32.170Z,1.10
2023-11-25T12:42:02.781Z,1.27
2023-11-25T12:44:48.092Z,1.20
2023-11-25T12:47:16.667Z,1.20
2023-11-25T12:49:46.157Z,1.10
2023-11-25T12:52:20.119Z,0.97
2023-11-25T12:54:47.497Z,1.57
2023-11-25T12:57:14.592Z,1.03
2023-11-25T12:59:42.668Z,1.10
2023-11-25T13:02:11.210Z,1.27
2023-11-25T13:04:49.377Z,1.63
2023-11-25T13:07:30.284Z,1.53
2023-11-25T13:09:57.253Z,4.70
2023-11-25T13:12:25.285Z,1.73
2023-11-25T13:14:52.507Z,3.17
2023-11-25T13:17:19.533Z,2.00
2023-11-25T13:19:47.836Z,2.03
2023-11-25T13:22:16.642Z,4.77
2023-11-25T13:24:45.238Z,3.00
2023-11-25T13:27:12.194Z,2.60
2023-11-25T13:29:39.086Z,1.50
2023-11-25T13:32:07.151Z,3.43
2023-11-25T13:34:34.250Z,2.23
2023-11-25T13:37:03.732Z,1.40
2023-11-25T13:39:32.452Z,1.80
2023-11-25T13:41:59.367Z,1.23
2023-11-25T13:44:26.320Z,1.40
2023-11-25T13:46:53.315Z,1.13
2023-11-25T13:49:20.213Z,1.67
2023-11-25T13:51:47.120Z,1.57
2023-11-25T13:54:16.584Z,1.30
2023-11-25T13:56:43.481Z,1.30
2023-11-25T13:59:10.320Z,1.10
2023-11-25T14:01:37.401Z,1.13
2023-11-25T14:04:04.705Z,0.90
2023-11-25T14:06:31.606Z,0.90
2023-11-25T14:09:00.007Z,1.00
2023-11-25T14:11:28.910Z,2.40
2023-11-25T14:13:57.413Z,1.50
2023-11-25T14:16:25.143Z,1.47
2023-11-25T14:18:53.393Z,1.10
2023-11-25T14:21:20.272Z,3.07
2023-11-25T14:23:47.142Z,1.20
2023-11-25T14:26:15.738Z,1.33
2023-11-25T14:28:44.654Z,1.40
2023-11-25T14:31:13.056Z,1.43
2023-11-25T14:33:39.977Z,1.00
2023-11-25T14:36:08.991Z,1.37
2023-11-25T14:38:36.686Z,0.90
2023-11-25T14:41:05.782Z,1.00
2023-11-25T14:43:32.788Z,1.23
2023-11-25T14:46:01.875Z,0.90
2023-11-25T14:48:28.838Z,0.90
2023-11-25T14:50:55.965Z,1.10
2023-11-25T14:53:22.948Z,1.00
2023-11-25T14:55:51.468Z,0.90
2023-11-25T14:58:18.458Z,1.10
2023-11-25T15:00:46.404Z,1.20
2023-11-25T15:03:14.785Z,1.23
2023-11-25T15:05:41.763Z,1.00
2023-11-25T15:08:08.809Z,1.20
2023-11-25T15:10:35.905Z,1.13
2023-11-25T15:13:02.893Z,1.30
2023-11-25T15:15:29.855Z,6.97
2023-11-25T15:17:56.824Z,1.80
2023-11-25T15:20:25.597Z,1.33
2023-11-25T15:22:52.718Z,1.30
2023-11-25T15:25:20.105Z,1.20
2023-11-25T15:27:47.274Z,1.20
2023-11-25T15:30:16.798Z,1.10
2023-11-25T15:32:43.922Z,1.57
2023-11-25T15:35:11.740Z,1.50
2023-11-25T15:37:40.355Z,1.37
2023-11-25T15:40:09.067Z,1.57
2023-11-25T15:42:36.025Z,1.53
2023-11-25T15:45:02.944Z,1.47
2023-11-25T15:47:30.420Z,1.30
2023-11-25T15:49:57.581Z,1.60
2023-11-25T15:52:24.618Z,0.97
2023-11-25T15:54:53.017Z,1.37
2023-11-25T15:57:19.947Z,1.63
2023-11-25T15:59:48.340Z,1.03
2023-11-25T16:02:17.220Z,1.27
2023-11-25T16:04:44.343Z,1.20
2023-11-25T16:07:14.022Z,1.30
2023-11-25T16:09:42.331Z,1.40
2023-11-25T16:12:12.142Z,1.47
2023-11-25T16:14:39.182Z,1.20
2023-11-25T16:17:07.229Z,1.00
2023-11-25T16:19:34.321Z,1.03
2023-11-25T16:22:01.308Z,1.10
2023-11-25T16:24:28.573Z,1.10
2023-11-25T16:26:55.524Z,1.00
2023-11-25T16:29:24.913Z,1.30
2023-11-25T16:31:52.004Z,1.20
2023-11-25T16:34:19.001Z,1.30
2023-11-25T16:36:45.848Z,1.27
2023-11-25T16:39:18.320Z,1.10
2023-11-25T16:41:50.631Z,0.90
2023-11-25T16:44:20.811Z,1.03
2023-11-25T16:46:49.256Z,1.13
2023-11-25T16:49:16.810Z,1.30
2023-11-25T16:51:43.773Z,1.80
2023-11-25T16:54:10.736Z,1.60
2023-11-25T16:56:37.655Z,1.50
2023-11-25T16:59:06.147Z,2.00
2023-11-25T17:01:33.409Z,1.50
2023-11-25T17:04:01.879Z,1.80
2023-11-25T17:06:29.410Z,1.33
2023-11-25T17:08:56.285Z,1.90
2023-11-25T17:11:24.245Z,1.73
2023-11-25T17:13:52.385Z,1.50
2023-11-25T17:16:21.347Z,1.63
2023-11-25T17:18:48.506Z,1.50
2023-11-25T17:21:17.602Z,1.43
2023-11-25T17:23:44.607Z,1.60
2023-11-25T17:26:12.950Z,1.90
2023-11-25T17:28:40.215Z,1.60
2023-11-25T17:31:07.138Z,1.40
2023-11-25T17:33:34.008Z,1.53
2023-11-25T17:36:00.891Z,1.50
2023-11-25T17:38:29.091Z,1.60
2023-11-25T17:40:56.086Z,1.57
2023-11-25T17:43:23.235Z,1.47
2023-11-25T17:45:50.191Z,1.60
2023-11-25T17:48:17.224Z,1.50
2023-11-25T17:50:44.202Z,1.40
2023-11-25T17:53:14.608Z,1.17
2023-11-25T17:55:43.515Z,1.40
2023-11-25T17:58:10.438Z,1.90
2023-11-25T18:00:39.857Z,1.57
2023-11-25T18:03:08.002Z,1.60
2023-11-25T18:05:37.138Z,1.47
2023-11-25T18:08:04.341Z,1.43
2023-11-25T18:10:31.242Z,1.13
2023-11-25T18:12:59.547Z,1.40
2023-11-25T18:15:26.452Z,1.43
2023-11-25T18:17:53.814Z,1.80
2023-11-25T18:20:20.840Z,1.50
2023-11-25T18:22:47.885Z,1.50
2023-11-25T18:25:15.136Z,1.57
2023-11-25T18:27:45.637Z,1.37
2023-11-25T18:30:15.875Z,1.63
2023-11-25T18:32:42.816Z,1.50
2023-11-25T18:35:10.063Z,2.23
2023-11-25T18:37:37.109Z,1.70
2023-11-25T18:40:04.536Z,0.93
2023-11-25T18:42:32.526Z,0.90
2023-11-25T18:44:59.794Z,1.03
2023-11-25T18:47:28.039Z,1.30
2023-11-25T18:49:55.034Z,0.90
2023-11-25T18:52:21.908Z,1.00
2023-11-25T18:54:48.801Z,0.77
2023-11-25T18:57:15.860Z,0.70
2023-11-25T18:59:45.410Z,0.97
2023-11-25T19:02:12.442Z,0.60
2023-11-25T19:04:40.865Z,0.70
2023-11-25T19:07:07.929Z,0.40
2023-11-25T19:09:34.869Z,0.47
2023-11-25T19:12:01.881Z,0.60
2023-11-25T19:14:31.295Z,0.70
2023-11-25T19:16:58.388Z,0.60
2023-11-25T19:19:25.375Z,0.60
2023-11-25T19:21:54.001Z,0.80
2023-11-25T19:24:21.446Z,1.30
2023-11-25T19:26:48.418Z,1.03
2023-11-25T19:29:16.110Z,0.90
2023-11-25T19:31:43.096Z,1.00
2023-11-25T19:34:10.066Z,0.90
2023-11-25T19:36:37.147Z,1.10
2023-11-25T19:39:06.048Z,1.13
2023-11-25T19:41:33.109Z,1.33
2023-11-25T19:44:00.437Z,0.97
2023-11-25T19:46:27.517Z,0.87
2023-11-25T19:48:54.912Z,0.53
2023-11-25T19:51:21.795Z,0.77
2023-11-25T19:53:51.565Z,0.70
2023-11-25T19:56:20.846Z,0.90
2023-11-25T19:58:48.055Z,0.67
2023-11-25T20:01:15.431Z,0.70
2023-11-25T20:03:42.703Z,0.83
2023-11-25T20:06:10.126Z,1.00
2023-11-25T20:08:37.038Z,0.97
2023-11-25T20:11:04.616Z,1.00
2023-11-25T20:13:33.118Z,0.90
2023-11-25T20:16:00.467Z,1.30
2023-11-25T20:18:27.540Z,1.40
2023-11-25T20:20:54.623Z,0.73
2023-11-25T20:23:23.077Z,0.77
2023-11-25T20:25:50.228Z,0.90
2023-11-25T20:28:17.477Z,0.87
2023-11-25T20:30:45.988Z,0.40
2023-11-25T20:33:13.165Z,0.70
2023-11-25T20:35:40.179Z,0.80
2023-11-25T20:38:07.228Z,0.93
2023-11-25T20:40:34.948Z,0.93
2023-11-25T20:43:01.969Z,0.90
2023-11-25T20:45:29.004Z,0.83
2023-11-25T20:47:59.000Z,0.60
2023-11-25T20:50:26.227Z,0.80
2023-11-25T20:52:53.305Z,1.00
2023-11-25T20:55:21.333Z,0.60
2023-11-25T20:57:48.324Z,0.90
2023-11-25T21:00:15.704Z,1.10
2023-11-25T21:02:42.752Z,1.00
2023-11-25T21:05:11.572Z,1.30
2023-11-25T21:07:38.722Z,1.27
2023-11-25T21:10:07.683Z,1.40
2023-11-25T21:12:34.757Z,1.47
2023-11-25T21:15:02.028Z,1.53
2023-11-25T21:17:28.974Z,1.53
2023-11-25T21:19:55.949Z,1.80
2023-11-25T21:22:27.155Z,1.50
2023-11-25T21:24:54.028Z,1.30
2023-11-25T21:27:20.901Z,1.37
2023-11-25T21:29:47.922Z,1.50
2023-11-25T21:32:14.975Z,1.60
2023-11-25T21:34:42.188Z,1.43
2023-11-25T21:37:09.192Z,1.57
2023-11-25T21:39:37.423Z,1.60
2023-11-25T21:42:04.649Z,1.70
2023-11-25T21:44:31.611Z,1.60
2023-11-25T21:46:58.873Z,1.20
2023-11-25T21:49:25.955Z,1.50
2023-11-25T21:51:52.828Z,1.50
2023-11-25T21:54:19.690Z,1.30
2023-11-25T21:56:47.875Z,1.30
2023-11-25T21:59:15.177Z,1.47
2023-11-25T22:01:42.271Z,1.55
2023-11-25T22:04:09.321Z,1.60
2023-11-25T22:06:36.584Z,1.60
2023-11-25T22:09:04.392Z,1.27
2023-11-25T22:11:32.022Z,0.93
2023-11-25T22:14:00.363Z,1.53
2023-11-25T22:16:27.443Z,1.50
2023-11-25T22:18:54.452Z,1.30
2023-11-25T22:21:21.652Z,1.30
2023-11-25T22:23:48.817Z,1.40
2023-11-25T22:26:20.662Z,1.70
2023-11-25T22:28:48.086Z,1.30
2023-11-25T22:31:17.665Z,1.20
2023-11-25T22:33:45.081Z,1.40
2023-11-25T22:36:25.017Z,1.30
2023-11-25T22:38:52.914Z,1.40
2023-11-25T22:41:20.313Z,1.23
2023-11-25T22:43:54.811Z,1.70
2023-11-25T22:46:24.691Z,1.47
2023-11-25T22:48:52.434Z,1.50
2023-11-25T22:51:22.547Z,1.47
2023-11-25T22:53:50.162Z,1.63
2023-11-25T22:56:17.417Z,1.30
2023-11-25T22:58:44.905Z,1.43
2023-11-25T23:01:13.787Z,2.00
2023-11-25T23:03:42.198Z,1.37
2023-11-25T23:06:10.441Z,2.13
2023-11-25T23:08:38.256Z,2.07
2023-11-25T23:11:05.721Z,1.73
2023-11-25T23:13:32.687Z,1.77
2023-11-25T23:15:59.713Z,1.50
2023-11-25T23:18:26.806Z,1.90
2023-11-25T23:20:55.700Z,1.50
2023-11-25T23:23:22.693Z,1.97
2023-11-25T23:25:49.905Z,1.40
2023-11-25T23:28:17.858Z,1.60
2023-11-25T23:30:44.833Z,2.00
2023-11-25T23:33:11.713Z,1.60
2023-11-25T23:35:38.919Z,1.73
2023-11-25T23:38:08.175Z,1.63
2023-11-25T23:40:35.275Z,1.73
2023-11-25T23:43:02.115Z,1.30
2023-11-25T23:45:29.009Z,1.40
2023-11-25T23:47:56.129Z,1.40
2023-11-25T23:50:23.166Z,1.60
2023-11-25T23:52:50.161Z,1.53
2023-11-25T23:55:18.464Z,1.30
2023-11-25T23:57:45.378Z,1.20
